sensor_id;sensor_type;location;lat;lon;timestamp;P1;durP1;ratioP1;P2;durP2;ratioP2
30408;SDS011;17207;52.960;5.916;2024-03-02T00:00:15;1.08;;;0.85;;
30408;SDS011;17207;52.960;5.916;2024-03-02T00:02:45;2.63;;;1.00;;
30408;SDS011;17207;52.960;5.916;2024-03-02T00:05:11;0.98;;;0.77;;
30408;SDS011;17207;52.960;5.916;2024-03-02T00:07:40;1.10;;;0.80;;
30408;SDS011;17207;52.960;5.916;2024-03-02T00:10:10;1.20;;;0.90;;
30408;SDS011;17207;52.960;5.916;2024-03-02T00:12:36;1.85;;;0.80;;
30408;SDS011;17207;52.960;5.916;2024-03-02T00:15:06;2.00;;;1.10;;
30408;SDS011;17207;52.960;5.916;2024-03-02T00:17:42;1.80;;;0.95;;
30408;SDS011;17207;52.960;5.916;2024-03-02T00:20:09;1.48;;;0.80;;
30408;SDS011;17207;52.960;5.916;2024-03-02T00:22:38;1.98;;;1.00;;
30408;SDS011;17207;52.960;5.916;2024-03-02T00:25:05;0.80;;;0.65;;
30408;SDS011;17207;52.960;5.916;2024-03-02T00:27:33;2.15;;;0.90;;
30408;SDS011;17207;52.960;5.916;2024-03-02T00:30:00;1.02;;;0.80;;
30408;SDS011;17207;52.960;5.916;2024-03-02T00:32:26;2.47;;;0.70;;
30408;SDS011;17207;52.960;5.916;2024-03-02T00:34:53;0.90;;;0.80;;
30408;SDS011;17207;52.960;5.916;2024-03-02T00:37:19;3.97;;;1.00;;
30408;SDS011;17207;52.960;5.916;2024-03-02T00:39:48;1.20;;;0.90;;
30408;SDS011;17207;52.960;5.916;2024-03-02T00:42:14;2.60;;;1.00;;
30408;SDS011;17207;52.960;5.916;2024-03-02T00:44:40;1.25;;;0.80;;
30408;SDS011;17207;52.960;5.916;2024-03-02T00:47:06;0.93;;;0.85;;
30408;SDS011;17207;52.960;5.916;2024-03-02T00:49:33;0.75;;;0.70;;
30408;SDS011;17207;52.960;5.916;2024-03-02T00:51:59;1.35;;;0.90;;
30408;SDS011;17207;52.960;5.916;2024-03-02T00:54:25;1.45;;;0.80;;
30408;SDS011;17207;52.960;5.916;2024-03-02T00:56:53;0.93;;;0.80;;
30408;SDS011;17207;52.960;5.916;2024-03-02T00:59:20;0.98;;;0.68;;
30408;SDS011;17207;52.960;5.916;2024-03-02T01:01:49;1.88;;;0.70;;
30408;SDS011;17207;52.960;5.916;2024-03-02T01:04:16;0.60;;;0.52;;
30408;SDS011;17207;52.960;5.916;2024-03-02T01:06:42;0.80;;;0.70;;
30408;SDS011;17207;52.960;5.916;2024-03-02T01:09:08;0.68;;;0.68;;
30408;SDS011;17207;52.960;5.916;2024-03-02T01:11:35;0.60;;;0.60;;
30408;SDS011;17207;52.960;5.916;2024-03-02T01:14:01;1.20;;;0.90;;
30408;SDS011;17207;52.960;5.916;2024-03-02T01:16:27;2.47;;;0.68;;
30408;SDS011;17207;52.960;5.916;2024-03-02T01:18:53;2.05;;;0.70;;
30408;SDS011;17207;52.960;5.916;2024-03-02T01:21:19;0.77;;;0.77;;
30408;SDS011;17207;52.960;5.916;2024-03-02T01:23:48;1.27;;;0.73;;
30408;SDS011;17207;52.960;5.916;2024-03-02T01:26:14;1.25;;;0.70;;
30408;SDS011;17207;52.960;5.916;2024-03-02T01:28:42;0.82;;;0.60;;
30408;SDS011;17207;52.960;5.916;2024-03-02T01:31:08;1.17;;;0.85;;
30408;SDS011;17207;52.960;5.916;2024-03-02T01:33:34;0.65;;;0.60;;
30408;SDS011;17207;52.960;5.916;2024-03-02T01:36:00;0.70;;;0.70;;
30408;SDS011;17207;52.960;5.916;2024-03-02T01:38:27;0.70;;;0.68;;
30408;SDS011;17207;52.960;5.916;2024-03-02T01:40:53;1.30;;;0.60;;
30408;SDS011;17207;52.960;5.916;2024-03-02T01:45:47;0.88;;;0.63;;
30408;SDS011;17207;52.960;5.916;2024-03-02T01:48:13;0.65;;;0.63;;
30408;SDS011;17207;52.960;5.916;2024-03-02T01:50:40;1.35;;;0.80;;
30408;SDS011;17207;52.960;5.916;2024-03-02T01:53:10;0.60;;;0.60;;
30408;SDS011;17207;52.960;5.916;2024-03-02T01:55:36;0.63;;;0.57;;
30408;SDS011;17207;52.960;5.916;2024-03-02T01:58:02;0.60;;;0.55;;
30408;SDS011;17207;52.960;5.916;2024-03-02T02:00:28;0.50;;;0.50;;
30408;SDS011;17207;52.960;5.916;2024-03-02T02:02:55;0.63;;;0.63;;
30408;SDS011;17207;52.960;5.916;2024-03-02T02:05:22;1.20;;;0.60;;
30408;SDS011;17207;52.960;5.916;2024-03-02T02:07:48;1.05;;;0.77;;
30408;SDS011;17207;52.960;5.916;2024-03-02T02:10:17;0.95;;;0.80;;
30408;SDS011;17207;52.960;5.916;2024-03-02T02:12:43;0.60;;;0.60;;
30408;SDS011;17207;52.960;5.916;2024-03-02T02:15:28;0.75;;;0.75;;
30408;SDS011;17207;52.960;5.916;2024-03-02T02:17:55;0.65;;;0.60;;
30408;SDS011;17207;52.960;5.916;2024-03-02T02:20:21;1.88;;;0.50;;
30408;SDS011;17207;52.960;5.916;2024-03-02T02:23:00;0.50;;;0.50;;
30408;SDS011;17207;52.960;5.916;2024-03-02T02:25:27;0.50;;;0.50;;
30408;SDS011;17207;52.960;5.916;2024-03-02T02:27:53;0.55;;;0.50;;
30408;SDS011;17207;52.960;5.916;2024-03-02T02:30:24;0.85;;;0.50;;
30408;SDS011;17207;52.960;5.916;2024-03-02T02:32:51;0.93;;;0.68;;
30408;SDS011;17207;52.960;5.916;2024-03-02T02:35:17;0.65;;;0.50;;
30408;SDS011;17207;52.960;5.916;2024-03-02T02:37:44;0.73;;;0.68;;
30408;SDS011;17207;52.960;5.916;2024-03-02T02:40:11;0.85;;;0.70;;
30408;SDS011;17207;52.960;5.916;2024-03-02T02:42:37;0.60;;;0.60;;
30408;SDS011;17207;52.960;5.916;2024-03-02T02:45:04;0.60;;;0.60;;
30408;SDS011;17207;52.960;5.916;2024-03-02T02:47:30;1.05;;;0.60;;
30408;SDS011;17207;52.960;5.916;2024-03-02T02:50:00;0.85;;;0.57;;
30408;SDS011;17207;52.960;5.916;2024-03-02T02:52:30;1.20;;;0.50;;
30408;SDS011;17207;52.960;5.916;2024-03-02T02:54:58;1.38;;;0.60;;
30408;SDS011;17207;52.960;5.916;2024-03-02T02:57:24;0.65;;;0.60;;
30408;SDS011;17207;52.960;5.916;2024-03-02T02:59:49;0.63;;;0.63;;
30408;SDS011;17207;52.960;5.916;2024-03-02T03:02:15;0.50;;;0.50;;
30408;SDS011;17207;52.960;5.916;2024-03-02T03:04:41;0.40;;;0.40;;
30408;SDS011;17207;52.960;5.916;2024-03-02T03:07:07;0.98;;;0.70;;
30408;SDS011;17207;52.960;5.916;2024-03-02T03:09:36;0.70;;;0.70;;
30408;SDS011;17207;52.960;5.916;2024-03-02T03:12:05;0.93;;;0.88;;
30408;SDS011;17207;52.960;5.916;2024-03-02T03:14:31;3.25;;;2.90;;
30408;SDS011;17207;52.960;5.916;2024-03-02T03:16:57;7.85;;;7.05;;
30408;SDS011;17207;52.960;5.916;2024-03-02T03:19:23;8.18;;;7.38;;
30408;SDS011;17207;52.960;5.916;2024-03-02T03:21:52;10.77;;;9.68;;
30408;SDS011;17207;52.960;5.916;2024-03-02T03:24:18;11.75;;;10.55;;
30408;SDS011;17207;52.960;5.916;2024-03-02T03:26:45;11.93;;;10.68;;
30408;SDS011;17207;52.960;5.916;2024-03-02T03:29:11;11.48;;;10.27;;
30408;SDS011;17207;52.960;5.916;2024-03-02T03:31:37;12.70;;;11.40;;
30408;SDS011;17207;52.960;5.916;2024-03-02T03:34:03;12.57;;;11.13;;
30408;SDS011;17207;52.960;5.916;2024-03-02T03:36:32;12.25;;;10.95;;
30408;SDS011;17207;52.960;5.916;2024-03-02T03:38:58;12.40;;;11.10;;
30408;SDS011;17207;52.960;5.916;2024-03-02T03:41:28;12.70;;;11.38;;
30408;SDS011;17207;52.960;5.916;2024-03-02T03:43:54;12.70;;;11.40;;
30408;SDS011;17207;52.960;5.916;2024-03-02T03:46:23;12.00;;;10.75;;
30408;SDS011;17207;52.960;5.916;2024-03-02T03:48:49;12.13;;;10.82;;
30408;SDS011;17207;52.960;5.916;2024-03-02T03:51:15;12.43;;;11.13;;
30408;SDS011;17207;52.960;5.916;2024-03-02T03:53:41;11.73;;;10.55;;
30408;SDS011;17207;52.960;5.916;2024-03-02T03:56:07;11.02;;;9.93;;
30408;SDS011;17207;52.960;5.916;2024-03-02T03:58:33;11.63;;;10.52;;
30408;SDS011;17207;52.960;5.916;2024-03-02T04:00:59;10.70;;;9.63;;
30408;SDS011;17207;52.960;5.916;2024-03-02T04:03:26;11.77;;;10.57;;
30408;SDS011;17207;52.960;5.916;2024-03-02T04:05:52;10.80;;;9.70;;
30408;SDS011;17207;52.960;5.916;2024-03-02T04:08:18;10.60;;;9.50;;
30408;SDS011;17207;52.960;5.916;2024-03-02T04:10:44;10.77;;;9.68;;
30408;SDS011;17207;52.960;5.916;2024-03-02T04:13:10;10.55;;;9.52;;
30408;SDS011;17207;52.960;5.916;2024-03-02T04:15:36;10.80;;;9.70;;
30408;SDS011;17207;52.960;5.916;2024-03-02T04:18:02;10.88;;;9.77;;
30408;SDS011;17207;52.960;5.916;2024-03-02T04:20:29;8.85;;;8.05;;
30408;SDS011;17207;52.960;5.916;2024-03-02T04:22:55;9.32;;;8.40;;
30408;SDS011;17207;52.960;5.916;2024-03-02T04:25:21;9.18;;;8.27;;
30408;SDS011;17207;52.960;5.916;2024-03-02T04:27:47;8.93;;;8.13;;
30408;SDS011;17207;52.960;5.916;2024-03-02T04:30:13;8.82;;;7.95;;
30408;SDS011;17207;52.960;5.916;2024-03-02T04:32:39;8.00;;;7.30;;
30408;SDS011;17207;52.960;5.916;2024-03-02T04:35:06;8.15;;;7.35;;
30408;SDS011;17207;52.960;5.916;2024-03-02T04:37:35;8.57;;;7.68;;
30408;SDS011;17207;52.960;5.916;2024-03-02T04:40:01;8.55;;;7.68;;
30408;SDS011;17207;52.960;5.916;2024-03-02T04:42:27;7.60;;;6.90;;
30408;SDS011;17207;52.960;5.916;2024-03-02T04:44:53;7.35;;;6.65;;
30408;SDS011;17207;52.960;5.916;2024-03-02T04:47:19;7.30;;;6.65;;
30408;SDS011;17207;52.960;5.916;2024-03-02T04:49:48;7.05;;;6.38;;
30408;SDS011;17207;52.960;5.916;2024-03-02T04:52:14;7.22;;;6.53;;
30408;SDS011;17207;52.960;5.916;2024-03-02T04:54:40;6.63;;;5.97;;
30408;SDS011;17207;52.960;5.916;2024-03-02T04:57:41;6.45;;;5.85;;
30408;SDS011;17207;52.960;5.916;2024-03-02T05:00:07;6.68;;;6.07;;
30408;SDS011;17207;52.960;5.916;2024-03-02T05:02:34;6.65;;;5.97;;
30408;SDS011;17207;52.960;5.916;2024-03-02T05:05:00;6.43;;;5.60;;
30408;SDS011;17207;52.960;5.916;2024-03-02T05:07:26;6.50;;;5.90;;
30408;SDS011;17207;52.960;5.916;2024-03-02T05:09:55;5.80;;;5.30;;
30408;SDS011;17207;52.960;5.916;2024-03-02T05:12:21;5.95;;;5.35;;
30408;SDS011;17207;52.960;5.916;2024-03-02T05:15:21;5.25;;;4.85;;
30408;SDS011;17207;52.960;5.916;2024-03-02T05:17:47;5.20;;;4.70;;
30408;SDS011;17207;52.960;5.916;2024-03-02T05:20:13;5.30;;;4.82;;
30408;SDS011;17207;52.960;5.916;2024-03-02T05:22:42;5.57;;;5.13;;
30408;SDS011;17207;52.960;5.916;2024-03-02T05:25:08;5.25;;;4.82;;
30408;SDS011;17207;52.960;5.916;2024-03-02T05:27:35;5.05;;;4.55;;
30408;SDS011;17207;52.960;5.916;2024-03-02T05:30:01;4.88;;;4.45;;
30408;SDS011;17207;52.960;5.916;2024-03-02T05:32:28;4.88;;;4.38;;
30408;SDS011;17207;52.960;5.916;2024-03-02T05:34:57;4.80;;;4.40;;
30408;SDS011;17207;52.960;5.916;2024-03-02T05:37:23;4.78;;;4.03;;
30408;SDS011;17207;52.960;5.916;2024-03-02T05:39:49;3.85;;;3.55;;
30408;SDS011;17207;52.960;5.916;2024-03-02T05:42:15;4.10;;;3.70;;
30408;SDS011;17207;52.960;5.916;2024-03-02T05:44:41;4.25;;;3.85;;
30408;SDS011;17207;52.960;5.916;2024-03-02T05:47:08;4.20;;;3.80;;
30408;SDS011;17207;52.960;5.916;2024-03-02T05:49:34;3.83;;;3.53;;
30408;SDS011;17207;52.960;5.916;2024-03-02T05:52:00;3.97;;;3.65;;
30408;SDS011;17207;52.960;5.916;2024-03-02T05:54:26;3.70;;;3.40;;
30408;SDS011;17207;52.960;5.916;2024-03-02T05:56:55;3.05;;;2.85;;
30408;SDS011;17207;52.960;5.916;2024-03-02T05:59:21;3.55;;;3.25;;
30408;SDS011;17207;52.960;5.916;2024-03-02T06:01:47;3.38;;;3.08;;
30408;SDS011;17207;52.960;5.916;2024-03-02T06:04:16;3.65;;;3.35;;
30408;SDS011;17207;52.960;5.916;2024-03-02T06:06:42;3.47;;;3.17;;
30408;SDS011;17207;52.960;5.916;2024-03-02T06:09:09;3.30;;;3.00;;
30408;SDS011;17207;52.960;5.916;2024-03-02T06:11:38;2.90;;;2.70;;
30408;SDS011;17207;52.960;5.916;2024-03-02T06:14:08;2.63;;;2.42;;
30408;SDS011;17207;52.960;5.916;2024-03-02T06:16:36;2.88;;;2.67;;
30408;SDS011;17207;52.960;5.916;2024-03-02T06:19:06;3.30;;;3.00;;
30408;SDS011;17207;52.960;5.916;2024-03-02T06:21:35;2.85;;;2.65;;
30408;SDS011;17207;52.960;5.916;2024-03-02T06:24:07;2.78;;;2.58;;
30408;SDS011;17207;52.960;5.916;2024-03-02T06:26:41;2.85;;;2.50;;
30408;SDS011;17207;52.960;5.916;2024-03-02T06:29:07;2.55;;;2.35;;
30408;SDS011;17207;52.960;5.916;2024-03-02T06:31:33;2.42;;;2.22;;
30408;SDS011;17207;52.960;5.916;2024-03-02T06:34:02;2.33;;;2.13;;
30408;SDS011;17207;52.960;5.916;2024-03-02T06:36:34;2.28;;;2.10;;
30408;SDS011;17207;52.960;5.916;2024-03-02T06:39:01;2.15;;;1.95;;
30408;SDS011;17207;52.960;5.916;2024-03-02T06:41:27;2.20;;;2.00;;
30408;SDS011;17207;52.960;5.916;2024-03-02T06:43:54;2.20;;;2.00;;
30408;SDS011;17207;52.960;5.916;2024-03-02T06:46:26;2.05;;;1.92;;
30408;SDS011;17207;52.960;5.916;2024-03-02T06:48:53;1.80;;;1.70;;
30408;SDS011;17207;52.960;5.916;2024-03-02T06:51:19;2.15;;;1.95;;
30408;SDS011;17207;52.960;5.916;2024-03-02T06:53:47;2.13;;;2.03;;
30408;SDS011;17207;52.960;5.916;2024-03-02T06:56:13;2.00;;;1.90;;
30408;SDS011;17207;52.960;5.916;2024-03-02T06:58:39;1.77;;;1.67;;
30408;SDS011;17207;52.960;5.916;2024-03-02T07:01:06;1.83;;;1.73;;
30408;SDS011;17207;52.960;5.916;2024-03-02T07:03:32;1.63;;;1.52;;
30408;SDS011;17207;52.960;5.916;2024-03-02T07:05:59;1.67;;;1.58;;
30408;SDS011;17207;52.960;5.916;2024-03-02T07:08:29;1.50;;;1.40;;
30408;SDS011;17207;52.960;5.916;2024-03-02T07:10:55;2.63;;;1.40;;
30408;SDS011;17207;52.960;5.916;2024-03-02T07:13:22;1.38;;;1.27;;
30408;SDS011;17207;52.960;5.916;2024-03-02T07:15:52;1.60;;;1.50;;
30408;SDS011;17207;52.960;5.916;2024-03-02T07:18:33;1.20;;;1.10;;
30408;SDS011;17207;52.960;5.916;2024-03-02T07:21:06;1.35;;;1.25;;
30408;SDS011;17207;52.960;5.916;2024-03-02T07:23:36;2.45;;;1.20;;
30408;SDS011;17207;52.960;5.916;2024-03-02T07:26:02;1.15;;;1.10;;
30408;SDS011;17207;52.960;5.916;2024-03-02T07:28:28;5.65;;;1.20;;
30408;SDS011;17207;52.960;5.916;2024-03-02T07:31:00;1.20;;;1.10;;
30408;SDS011;17207;52.960;5.916;2024-03-02T07:33:27;1.17;;;1.08;;
30408;SDS011;17207;52.960;5.916;2024-03-02T07:35:56;1.48;;;0.98;;
30408;SDS011;17207;52.960;5.916;2024-03-02T07:38:25;2.20;;;1.10;;
30408;SDS011;17207;52.960;5.916;2024-03-02T07:40:51;1.00;;;0.93;;
30408;SDS011;17207;52.960;5.916;2024-03-02T07:43:19;1.25;;;1.15;;
30408;SDS011;17207;52.960;5.916;2024-03-02T07:45:46;1.17;;;1.08;;
30408;SDS011;17207;52.960;5.916;2024-03-02T07:48:12;0.88;;;0.88;;
30408;SDS011;17207;52.960;5.916;2024-03-02T07:50:41;1.15;;;1.05;;
30408;SDS011;17207;52.960;5.916;2024-03-02T07:53:08;0.80;;;0.80;;
30408;SDS011;17207;52.960;5.916;2024-03-02T07:55:39;0.80;;;0.80;;
30408;SDS011;17207;52.960;5.916;2024-03-02T07:58:06;1.10;;;1.10;;
30408;SDS011;17207;52.960;5.916;2024-03-02T08:00:35;0.70;;;0.70;;
30408;SDS011;17207;52.960;5.916;2024-03-02T08:03:04;0.95;;;0.90;;
30408;SDS011;17207;52.960;5.916;2024-03-02T08:05:31;1.00;;;0.90;;
30408;SDS011;17207;52.960;5.916;2024-03-02T08:07:58;0.60;;;0.60;;
30408;SDS011;17207;52.960;5.916;2024-03-02T08:10:34;0.80;;;0.80;;
30408;SDS011;17207;52.960;5.916;2024-03-02T08:13:01;0.73;;;0.65;;
30408;SDS011;17207;52.960;5.916;2024-03-02T08:15:28;0.70;;;0.70;;
30408;SDS011;17207;52.960;5.916;2024-03-02T08:17:54;1.25;;;0.70;;
30408;SDS011;17207;52.960;5.916;2024-03-02T08:20:21;0.87;;;0.83;;
30408;SDS011;17207;52.960;5.916;2024-03-02T08:22:47;0.80;;;0.80;;
30408;SDS011;17207;52.960;5.916;2024-03-02T08:25:16;0.70;;;0.60;;
30408;SDS011;17207;52.960;5.916;2024-03-02T08:27:43;0.70;;;0.70;;
30408;SDS011;17207;52.960;5.916;2024-03-02T08:30:09;0.85;;;0.60;;
30408;SDS011;17207;52.960;5.916;2024-03-02T08:32:35;0.90;;;0.73;;
30408;SDS011;17207;52.960;5.916;2024-03-02T08:35:03;0.80;;;0.80;;
30408;SDS011;17207;52.960;5.916;2024-03-02T08:37:37;0.70;;;0.70;;
30408;SDS011;17207;52.960;5.916;2024-03-02T08:40:06;0.88;;;0.88;;
30408;SDS011;17207;52.960;5.916;2024-03-02T08:42:33;0.70;;;0.70;;
30408;SDS011;17207;52.960;5.916;2024-03-02T08:45:03;0.70;;;0.70;;
30408;SDS011;17207;52.960;5.916;2024-03-02T08:49:58;0.65;;;0.60;;
30408;SDS011;17207;52.960;5.916;2024-03-02T08:52:25;0.80;;;0.80;;
30408;SDS011;17207;52.960;5.916;2024-03-02T08:54:52;0.57;;;0.52;;
30408;SDS011;17207;52.960;5.916;2024-03-02T08:57:21;0.93;;;0.70;;
30408;SDS011;17207;52.960;5.916;2024-03-02T08:59:52;0.80;;;0.80;;
30408;SDS011;17207;52.960;5.916;2024-03-02T09:02:18;1.00;;;0.70;;
30408;SDS011;17207;52.960;5.916;2024-03-02T09:04:45;0.63;;;0.63;;
30408;SDS011;17207;52.960;5.916;2024-03-02T09:07:18;0.98;;;0.80;;
30408;SDS011;17207;52.960;5.916;2024-03-02T09:09:45;0.98;;;0.80;;
30408;SDS011;17207;52.960;5.916;2024-03-02T09:12:11;0.60;;;0.60;;
30408;SDS011;17207;52.960;5.916;2024-03-02T09:14:38;0.90;;;0.65;;
30408;SDS011;17207;52.960;5.916;2024-03-02T09:17:08;0.70;;;0.60;;
30408;SDS011;17207;52.960;5.916;2024-03-02T09:19:39;1.58;;;0.77;;
30408;SDS011;17207;52.960;5.916;2024-03-02T09:24:42;0.68;;;0.68;;
30408;SDS011;17207;52.960;5.916;2024-03-02T09:27:11;0.70;;;0.70;;
30408;SDS011;17207;52.960;5.916;2024-03-02T09:29:43;0.82;;;0.70;;
30408;SDS011;17207;52.960;5.916;2024-03-02T09:32:12;0.60;;;0.60;;
30408;SDS011;17207;52.960;5.916;2024-03-02T09:34:39;1.17;;;0.80;;
30408;SDS011;17207;52.960;5.916;2024-03-02T09:37:09;1.63;;;0.70;;
30408;SDS011;17207;52.960;5.916;2024-03-02T09:39:37;0.60;;;0.60;;
30408;SDS011;17207;52.960;5.916;2024-03-02T09:42:07;0.60;;;0.60;;
30408;SDS011;17207;52.960;5.916;2024-03-02T09:44:36;0.60;;;0.60;;
30408;SDS011;17207;52.960;5.916;2024-03-02T09:47:02;0.82;;;0.73;;
30408;SDS011;17207;52.960;5.916;2024-03-02T09:49:35;0.80;;;0.70;;
30408;SDS011;17207;52.960;5.916;2024-03-02T09:52:02;0.77;;;0.70;;
30408;SDS011;17207;52.960;5.916;2024-03-02T09:54:31;0.80;;;0.80;;
30408;SDS011;17207;52.960;5.916;2024-03-02T09:56:58;0.85;;;0.60;;
30408;SDS011;17207;52.960;5.916;2024-03-02T09:59:26;1.17;;;0.77;;
30408;SDS011;17207;52.960;5.916;2024-03-02T10:01:56;1.27;;;0.80;;
30408;SDS011;17207;52.960;5.916;2024-03-02T10:04:26;0.70;;;0.70;;
30408;SDS011;17207;52.960;5.916;2024-03-02T10:09:37;1.00;;;0.80;;
30408;SDS011;17207;52.960;5.916;2024-03-02T10:12:04;0.90;;;0.80;;
30408;SDS011;17207;52.960;5.916;2024-03-02T10:14:31;0.80;;;0.77;;
30408;SDS011;17207;52.960;5.916;2024-03-02T10:17:02;0.90;;;0.70;;
30408;SDS011;17207;52.960;5.916;2024-03-02T10:19:32;0.63;;;0.60;;
30408;SDS011;17207;52.960;5.916;2024-03-02T10:22:02;1.20;;;0.73;;
30408;SDS011;17207;52.960;5.916;2024-03-02T10:24:34;1.10;;;0.70;;
30408;SDS011;17207;52.960;5.916;2024-03-02T10:27:08;0.73;;;0.60;;
30408;SDS011;17207;52.960;5.916;2024-03-02T10:29:37;0.75;;;0.70;;
30408;SDS011;17207;52.960;5.916;2024-03-02T10:32:21;0.65;;;0.52;;
30408;SDS011;17207;52.960;5.916;2024-03-02T10:34:48;1.50;;;0.77;;
30408;SDS011;17207;52.960;5.916;2024-03-02T10:37:16;0.70;;;0.60;;
30408;SDS011;17207;52.960;5.916;2024-03-02T10:39:43;0.73;;;0.67;;
30408;SDS011;17207;52.960;5.916;2024-03-02T10:42:11;0.98;;;0.88;;
30408;SDS011;17207;52.960;5.916;2024-03-02T10:44:38;0.70;;;0.70;;
30408;SDS011;17207;52.960;5.916;2024-03-02T10:47:05;0.68;;;0.65;;
30408;SDS011;17207;52.960;5.916;2024-03-02T10:49:32;0.68;;;0.68;;
30408;SDS011;17207;52.960;5.916;2024-03-02T10:51:58;0.80;;;0.60;;
30408;SDS011;17207;52.960;5.916;2024-03-02T10:54:25;1.02;;;0.85;;
30408;SDS011;17207;52.960;5.916;2024-03-02T10:56:55;0.77;;;0.65;;
30408;SDS011;17207;52.960;5.916;2024-03-02T10:59:35;0.70;;;0.70;;
30408;SDS011;17207;52.960;5.916;2024-03-02T11:02:09;1.15;;;0.82;;
30408;SDS011;17207;52.960;5.916;2024-03-02T11:04:38;1.10;;;0.80;;
30408;SDS011;17207;52.960;5.916;2024-03-02T11:07:11;1.30;;;0.80;;
30408;SDS011;17207;52.960;5.916;2024-03-02T11:09:40;1.20;;;0.77;;
30408;SDS011;17207;52.960;5.916;2024-03-02T11:15:11;0.80;;;0.75;;
30408;SDS011;17207;52.960;5.916;2024-03-02T11:17:41;0.60;;;0.60;;
30408;SDS011;17207;52.960;5.916;2024-03-02T11:20:11;1.15;;;0.90;;
30408;SDS011;17207;52.960;5.916;2024-03-02T11:22:38;0.85;;;0.65;;
30408;SDS011;17207;52.960;5.916;2024-03-02T11:25:22;1.33;;;0.70;;
30408;SDS011;17207;52.960;5.916;2024-03-02T11:33:06;1.13;;;0.75;;
30408;SDS011;17207;52.960;5.916;2024-03-02T11:35:36;1.02;;;0.80;;
30408;SDS011;17207;52.960;5.916;2024-03-02T11:38:06;1.00;;;0.73;;
30408;SDS011;17207;52.960;5.916;2024-03-02T11:43:00;1.45;;;0.80;;
30408;SDS011;17207;52.960;5.916;2024-03-02T11:45:28;1.08;;;0.80;;
30408;SDS011;17207;52.960;5.916;2024-03-02T11:47:59;1.00;;;0.82;;
30408;SDS011;17207;52.960;5.916;2024-03-02T11:50:36;1.27;;;0.90;;
30408;SDS011;17207;52.960;5.916;2024-03-02T11:53:05;0.88;;;0.80;;
30408;SDS011;17207;52.960;5.916;2024-03-02T11:55:31;0.85;;;0.75;;
30408;SDS011;17207;52.960;5.916;2024-03-02T11:58:01;1.20;;;0.70;;
30408;SDS011;17207;52.960;5.916;2024-03-02T12:00:31;0.98;;;0.77;;
30408;SDS011;17207;52.960;5.916;2024-03-02T12:03:01;1.58;;;0.90;;
30408;SDS011;17207;52.960;5.916;2024-03-02T12:05:28;1.10;;;0.73;;
30408;SDS011;17207;52.960;5.916;2024-03-02T12:07:58;1.05;;;0.80;;
30408;SDS011;17207;52.960;5.916;2024-03-02T12:10:26;0.77;;;0.60;;
30408;SDS011;17207;52.960;5.916;2024-03-02T12:12:56;0.82;;;0.63;;
30408;SDS011;17207;52.960;5.916;2024-03-02T12:15:24;0.82;;;0.73;;
30408;SDS011;17207;52.960;5.916;2024-03-02T12:17:52;1.00;;;0.90;;
30408;SDS011;17207;52.960;5.916;2024-03-02T12:20:19;0.93;;;0.70;;
30408;SDS011;17207;52.960;5.916;2024-03-02T12:22:48;1.02;;;0.70;;
30408;SDS011;17207;52.960;5.916;2024-03-02T12:25:17;0.82;;;0.60;;
30408;SDS011;17207;52.960;5.916;2024-03-02T12:27:50;0.98;;;0.85;;
30408;SDS011;17207;52.960;5.916;2024-03-02T12:30:17;0.90;;;0.77;;
30408;SDS011;17207;52.960;5.916;2024-03-02T12:32:46;1.10;;;0.77;;
30408;SDS011;17207;52.960;5.916;2024-03-02T12:35:13;0.75;;;0.60;;
30408;SDS011;17207;52.960;5.916;2024-03-02T12:37:44;1.63;;;0.70;;
30408;SDS011;17207;52.960;5.916;2024-03-02T12:40:11;2.25;;;0.85;;
30408;SDS011;17207;52.960;5.916;2024-03-02T12:42:41;1.95;;;0.70;;
30408;SDS011;17207;52.960;5.916;2024-03-02T12:45:08;1.52;;;0.80;;
30408;SDS011;17207;52.960;5.916;2024-03-02T12:47:38;1.40;;;0.75;;
30408;SDS011;17207;52.960;5.916;2024-03-02T12:50:05;1.13;;;0.70;;
30408;SDS011;17207;52.960;5.916;2024-03-02T12:52:31;0.95;;;0.65;;
30408;SDS011;17207;52.960;5.916;2024-03-02T12:54:59;0.93;;;0.70;;
30408;SDS011;17207;52.960;5.916;2024-03-02T12:57:28;0.82;;;0.70;;
30408;SDS011;17207;52.960;5.916;2024-03-02T13:00:01;0.98;;;0.70;;
30408;SDS011;17207;52.960;5.916;2024-03-02T13:02:39;0.88;;;0.73;;
30408;SDS011;17207;52.960;5.916;2024-03-02T13:05:07;1.08;;;0.80;;
30408;SDS011;17207;52.960;5.916;2024-03-02T13:07:37;0.70;;;0.65;;
30408;SDS011;17207;52.960;5.916;2024-03-02T13:10:04;0.70;;;0.70;;
30408;SDS011;17207;52.960;5.916;2024-03-02T13:12:31;0.95;;;0.75;;
30408;SDS011;17207;52.960;5.916;2024-03-02T13:15:02;1.08;;;0.77;;
30408;SDS011;17207;52.960;5.916;2024-03-02T13:17:34;0.75;;;0.60;;
30408;SDS011;17207;52.960;5.916;2024-03-02T13:20:09;0.93;;;0.77;;
30408;SDS011;17207;52.960;5.916;2024-03-02T13:22:45;0.82;;;0.70;;
30408;SDS011;17207;52.960;5.916;2024-03-02T13:25:11;0.80;;;0.60;;
30408;SDS011;17207;52.960;5.916;2024-03-02T13:27:38;1.67;;;0.80;;
30408;SDS011;17207;52.960;5.916;2024-03-02T13:30:09;1.05;;;0.80;;
30408;SDS011;17207;52.960;5.916;2024-03-02T13:32:35;0.70;;;0.70;;
30408;SDS011;17207;52.960;5.916;2024-03-02T13:35:01;1.25;;;0.70;;
30408;SDS011;17207;52.960;5.916;2024-03-02T13:37:28;0.90;;;0.63;;
30408;SDS011;17207;52.960;5.916;2024-03-02T13:39:59;1.30;;;0.50;;
30408;SDS011;17207;52.960;5.916;2024-03-02T13:42:25;0.85;;;0.70;;
30408;SDS011;17207;52.960;5.916;2024-03-02T13:44:52;1.90;;;0.77;;
30408;SDS011;17207;52.960;5.916;2024-03-02T13:47:18;0.57;;;0.50;;
30408;SDS011;17207;52.960;5.916;2024-03-02T13:52:14;0.90;;;0.60;;
30408;SDS011;17207;52.960;5.916;2024-03-02T13:54:42;0.68;;;0.50;;
30408;SDS011;17207;52.960;5.916;2024-03-02T13:57:12;0.98;;;0.68;;
30408;SDS011;17207;52.960;5.916;2024-03-02T13:59:41;1.00;;;0.70;;
30408;SDS011;17207;52.960;5.916;2024-03-02T14:02:08;0.60;;;0.60;;
30408;SDS011;17207;52.960;5.916;2024-03-02T14:04:35;0.93;;;0.70;;
30408;SDS011;17207;52.960;5.916;2024-03-02T14:07:02;0.80;;;0.65;;
30408;SDS011;17207;52.960;5.916;2024-03-02T14:09:28;0.75;;;0.60;;
30408;SDS011;17207;52.960;5.916;2024-03-02T14:11:55;0.60;;;0.60;;
30408;SDS011;17207;52.960;5.916;2024-03-02T14:14:21;0.73;;;0.65;;
30408;SDS011;17207;52.960;5.916;2024-03-02T14:16:53;0.93;;;0.77;;
30408;SDS011;17207;52.960;5.916;2024-03-02T14:19:32;0.98;;;0.60;;
30408;SDS011;17207;52.960;5.916;2024-03-02T14:22:01;0.70;;;0.70;;
30408;SDS011;17207;52.960;5.916;2024-03-02T14:24:30;0.90;;;0.65;;
30408;SDS011;17207;52.960;5.916;2024-03-02T14:26:59;1.17;;;0.88;;
30408;SDS011;17207;52.960;5.916;2024-03-02T14:29:30;0.82;;;0.60;;
30408;SDS011;17207;52.960;5.916;2024-03-02T14:32:04;1.40;;;0.60;;
30408;SDS011;17207;52.960;5.916;2024-03-02T14:34:31;0.75;;;0.60;;
30408;SDS011;17207;52.960;5.916;2024-03-02T14:36:58;1.10;;;0.60;;
30408;SDS011;17207;52.960;5.916;2024-03-02T14:39:25;0.65;;;0.57;;
30408;SDS011;17207;52.960;5.916;2024-03-02T14:41:55;0.90;;;0.65;;
30408;SDS011;17207;52.960;5.916;2024-03-02T14:44:25;1.05;;;0.70;;
30408;SDS011;17207;52.960;5.916;2024-03-02T14:46:53;0.88;;;0.50;;
30408;SDS011;17207;52.960;5.916;2024-03-02T14:49:31;0.98;;;0.50;;
30408;SDS011;17207;52.960;5.916;2024-03-02T14:52:02;1.95;;;0.75;;
30408;SDS011;17207;52.960;5.916;2024-03-02T14:54:29;0.85;;;0.60;;
30408;SDS011;17207;52.960;5.916;2024-03-02T14:56:55;1.13;;;0.73;;
30408;SDS011;17207;52.960;5.916;2024-03-02T14:59:22;1.05;;;0.68;;
30408;SDS011;17207;52.960;5.916;2024-03-02T15:01:48;0.95;;;0.75;;
30408;SDS011;17207;52.960;5.916;2024-03-02T15:04:24;1.13;;;0.70;;
30408;SDS011;17207;52.960;5.916;2024-03-02T15:06:50;0.88;;;0.65;;
30408;SDS011;17207;52.960;5.916;2024-03-02T15:09:17;1.70;;;0.63;;
30408;SDS011;17207;52.960;5.916;2024-03-02T15:11:45;0.70;;;0.67;;
30408;SDS011;17207;52.960;5.916;2024-03-02T15:14:14;1.17;;;0.80;;